Time;durP1;ratioP1;P1;durP2;ratioP2;P2;SDS_P1;SDS_P2;PMS_P1;PMS_P2;Temp;Humidity;BMP_temperature;BMP_pressure;BME280_temperature;BME280_humidity;BME280_pressure;Samples;Min_cycle;Max_cycle;Signal;HPM_P1;HPM_P2
2023/09/01 00:01:57;;;;;;;;;;;17.50;70.90;;;;;;5097315;28;19927;-74
2023/09/01 00:04:23;;;;;;;;;;;17.60;70.90;;;;;;5097393;28;20384;-72
2023/09/01 00:06:49;;;;;;;;;;;17.50;70.90;;;;;;5096969;28;19930;-73
2023/09/01 00:09:14;;;;;;;;;;;17.50;70.90;;;;;;5115268;28;20363;-73
2023/09/01 00:11:40;;;;;;;;;;;17.50;70.80;;;;;;5097285;28;19920;-67
2023/09/01 00:14:05;;;;;;;;;;;17.50;70.90;;;;;;5131495;27;20007;-73
2023/09/01 00:16:31;;;;;;;;;;;17.50;70.90;;;;;;5097164;28;19919;-67
2023/09/01 00:18:56;;;;;;;;;;;17.50;70.90;;;;;;5096805;28;19930;-67
2023/09/01 00:21:22;;;;;;;;;;;17.50;70.90;;;;;;5114958;28;20011;-67
2023/09/01 00:23:47;;;;;;;;;;;17.50;70.80;;;;;;5096765;28;19920;-73
2023/09/01 00:26:13;;;;;;;;;;;17.50;70.80;;;;;;5131076;27;19970;-67
2023/09/01 00:28:38;;;;;;;;;;;17.50;70.90;;;;;;5096379;28;19924;-66
2023/09/01 00:31:04;;;;;;;;;;;17.50;70.90;;;;;;5096547;28;19919;-66
2023/09/01 00:33:30;;;;;;;;;;;17.50;70.90;;;;;;5114803;28;20052;-67
2023/09/01 00:35:56;;;;;;;;;;;17.50;70.90;;;;;;5114781;28;19927;-67
2023/09/01 00:38:22;;;;;;;;;;;17.50;70.90;;;;;;5115100;28;20305;-67
2023/09/01 00:40:48;;;;;;;;;;;17.50;70.80;;;;;;5131071;27;20060;-67
2023/09/01 00:43:14;;;;;;;;;;;17.50;70.80;;;;;;5096331;28;19920;-66
2023/09/01 00:45:40;;;;;;;;;;;17.50;70.90;;;;;;5096637;28;19965;-73
2023/09/01 00:48:06;;;;;;;;;;;17.50;70.80;;;;;;5130356;27;19919;-73
2023/09/01 00:50:32;;;;;;;;;;;17.50;70.80;;;;;;5130349;27;20010;-72
2023/09/01 00:53:00;;;;;;;;;;;17.50;70.90;;;;;;5114356;28;19927;-73
2023/09/01 00:55:25;;;;;;;;;;;17.50;70.90;;;;;;5130773;27;19919;-67
2023/09/01 00:57:51;;;;;;;;;;;17.50;70.90;;;;;;5096206;28;20399;-72
2023/09/01 01:00:18;;;;;;;;;;;17.50;70.80;;;;;;5095973;28;19924;-67
2023/09/01 01:02:44;;;;;;;;;;;17.40;70.80;;;;;;5096286;28;20314;-74
2023/09/01 01:05:15;;;;;;;;;;;17.50;70.90;;;;;;5114098;28;19965;-73
2023/09/01 01:07:45;;;;;;;;;;;17.50;70.90;;;;;;5096203;28;20497;-72
2023/09/01 01:10:16;;;;;;;;;;;17.50;70.90;;;;;;5095689;28;19928;-72
2023/09/01 01:12:49;;;;;;;;;;;17.50;70.80;;;;;;5096106;28;19959;-73
2023/09/01 01:15:15;;;;;;;;;;;17.40;70.80;;;;;;5113941;28;19927;-67
2023/09/01 01:17:43;;;;;;;;;;;17.40;70.80;;;;;;5095820;28;19923;-68
2023/09/01 01:22:49;;;;;;;;;;;17.40;70.80;;;;;;5110384;27;19934;-66
2023/09/01 01:25:14;;;;;;;;;;;17.40;70.80;;;;;;5108931;28;20415;-66
2023/09/01 01:27:42;;;;;;;;;;;17.40;70.80;;;;;;5108917;28;20018;-72
2023/09/01 01:30:09;;;;;;;;;;;17.40;70.80;;;;;;5109173;28;19967;-72
2023/09/01 01:32:35;;;;;;;;;;;17.40;70.80;;;;;;5109071;28;19926;-66
2023/09/01 01:35:10;;;;;;;;;;;17.40;70.90;;;;;;5109101;28;19924;-66
2023/09/01 01:37:55;;;;;;;;;;;17.40;70.80;;;;;;5108780;28;19970;-66
2023/09/01 01:40:22;;;;;;;;;;;17.40;70.80;;;;;;5108722;28;20359;-66
2023/09/01 01:42:48;;;;;;;;;;;17.40;70.80;;;;;;5108718;28;19927;-73
2023/09/01 01:45:20;;;;;;;;;;;17.40;70.80;;;;;;5109769;28;19920;-66
2023/09/01 01:47:47;;;;;;;;;;;17.40;70.90;;;;;;5108596;28;19986;-65
2023/09/01 01:50:13;;;;;;;;;;;17.40;70.80;;;;;;5109864;28;20347;-72
2023/09/01 01:52:38;;;;;;;;;;;17.40;70.80;;;;;;5108498;28;19959;-66
2023/09/01 01:55:07;;;;;;;;;;;17.40;70.80;;;;;;5109695;28;19989;-66
2023/09/01 01:57:32;;;;;;;;;;;17.30;70.80;;;;;;5108668;28;20363;-71
2023/09/01 01:59:58;;;;;;;;;;;17.40;70.80;;;;;;5109487;28;19927;-65
2023/09/01 02:02:23;;;;;;;;;;;17.40;70.80;;;;;;5109602;28;19924;-66
2023/09/01 02:04:49;;;;;;;;;;;17.40;70.80;;;;;;5108534;28;19927;-66
2023/09/01 02:07:17;;;;;;;;;;;17.40;70.80;;;;;;5108416;28;19926;-72
2023/09/01 02:09:43;;;;;;;;;;;17.40;70.80;;;;;;5108394;28;20345;-66
2023/09/01 02:12:08;;;;;;;;;;;17.40;70.80;;;;;;5108022;28;20057;-73
2023/09/01 02:14:34;;;;;;;;;;;17.40;70.80;;;;;;5107989;28;19924;-72
2023/09/01 02:17:00;;;;;;;;;;;17.40;70.70;;;;;;5108173;28;19923;-66
2023/09/01 02:19:27;;;;;;;;;;;17.30;70.70;;;;;;5108263;28;19927;-70
2023/09/01 02:21:53;;;;;;;;;;;17.40;70.80;;;;;;5122200;28;19965;-71
2023/09/01 02:24:18;;;;;;;;;;;17.40;70.80;;;;;;5129533;28;19967;-65
2023/09/01 02:26:43;;;;;;;;;;;17.30;70.70;;;;;;5145501;27;19920;-72
2023/09/01 02:29:09;;;;;;;;;;;17.30;70.70;;;;;;5145776;27;20131;-72
2023/09/01 02:31:35;;;;;;;;;;;17.30;70.70;;;;;;5111266;28;19920;-66
2023/09/01 02:34:00;;;;;;;;;;;17.30;70.70;;;;;;5097972;28;19932;-71
2023/09/01 02:36:30;;;;;;;;;;;17.30;70.70;;;;;;5097361;28;19927;-72
2023/09/01 02:38:56;;;;;;;;;;;17.30;70.70;;;;;;5115629;28;19919;-65
2023/09/01 02:41:22;;;;;;;;;;;17.30;70.70;;;;;;5131515;27;19923;-66
2023/09/01 02:43:47;;;;;;;;;;;17.30;70.70;;;;;;5097602;28;20014;-65
2023/09/01 02:46:13;;;;;;;;;;;17.30;70.80;;;;;;5115422;28;20286;-66
2023/09/01 02:48:39;;;;;;;;;;;17.30;70.70;;;;;;5097189;28;19927;-72
2023/09/01 02:51:04;;;;;;;;;;;17.30;71.40;;;;;;5115538;28;19920;-71
2023/09/01 02:53:31;;;;;;;;;;;17.30;70.80;;;;;;5115430;28;20367;-66
2023/09/01 02:55:56;;;;;;;;;;;17.30;70.70;;;;;;5115318;28;19943;-71
2023/09/01 02:58:22;;;;;;;;;;;17.30;70.70;;;;;;5096930;28;19920;-71
2023/09/01 03:00:47;;;;;;;;;;;17.30;70.70;;;;;;5097113;28;19923;-66
2023/09/01 03:03:12;;;;;;;;;;;17.30;70.70;;;;;;5114939;28;19920;-66
2023/09/01 03:05:38;;;;;;;;;;;17.30;70.70;;;;;;5115180;28;19920;-72
2023/09/01 03:08:05;;;;;;;;;;;17.30;70.70;;;;;;5096999;28;20325;-66
2023/09/01 03:10:31;;;;;;;;;;;17.20;70.60;;;;;;5115025;28;19919;-66
2023/09/01 03:12:56;;;;;;;;;;;17.30;70.70;;;;;;5096624;28;19920;-66
2023/09/01 03:15:22;;;;;;;;;;;17.30;70.70;;;;;;5096946;28;19920;-65
2023/09/01 03:17:47;;;;;;;;;;;17.20;70.70;;;;;;5114781;28;20290;-65
2023/09/01 03:20:13;;;;;;;;;;;17.20;70.60;;;;;;5115012;28;19945;-66
2023/09/01 03:22:38;;;;;;;;;;;17.20;70.60;;;;;;5096150;28;19924;-66
2023/09/01 03:25:09;;;;;;;;;;;17.20;70.60;;;;;;5114820;28;19919;-71
2023/09/01 03:27:36;;;;;;;;;;;17.20;70.60;;;;;;5096367;28;19920;-66
2023/09/01 03:30:02;;;;;;;;;;;17.20;70.60;;;;;;5096668;28;19920;-66
2023/09/01 03:32:29;;;;;;;;;;;17.20;70.60;;;;;;5114528;28;19920;-65
2023/09/01 03:34:55;;;;;;;;;;;17.20;70.60;;;;;;5096510;28;19919;-66
2023/09/01 03:37:21;;;;;;;;;;;17.20;70.60;;;;;;5096614;28;19947;-66
2023/09/01 03:39:46;;;;;;;;;;;17.20;70.50;;;;;;5096490;28;20370;-66
2023/09/01 03:42:12;;;;;;;;;;;17.20;70.60;;;;;;5096059;28;19923;-66
2023/09/01 03:44:37;;;;;;;;;;;17.20;70.50;;;;;;5095190;28;19924;-72
2023/09/01 03:47:03;;;;;;;;;;;17.20;70.50;;;;;;5096242;28;20333;-66
2023/09/01 03:49:29;;;;;;;;;;;17.20;71.30;;;;;;5095968;28;19927;-66
2023/09/01 03:51:55;;;;;;;;;;;17.20;70.50;;;;;;5096259;28;19920;-66
2023/09/01 03:54:20;;;;;;;;;;;17.20;70.50;;;;;;5096184;28;19919;-72
2023/09/01 03:56:46;;;;;;;;;;;17.20;70.50;;;;;;5095873;28;20002;-66
2023/09/01 03:59:11;;;;;;;;;;;17.20;70.50;;;;;;5113938;28;19964;-66
2023/09/01 04:01:37;;;;;;;;;;;17.20;70.50;;;;;;5095702;28;19931;-72
2023/09/01 04:04:02;;;;;;;;;;;17.20;70.50;;;;;;5095817;28;20397;-66
2023/09/01 04:06:28;;;;;;;;;;;17.20;70.50;;;;;;5096126;28;19972;-66
2023/09/01 04:08:53;;;;;;;;;;;17.20;70.50;;;;;;5095596;28;20387;-65
2023/09/01 04:11:19;;;;;;;;;;;17.20;70.40;;;;;;5129929;27;20002;-66
2023/09/01 04:13:44;;;;;;;;;;;17.20;70.40;;;;;;5095551;28;19920;-66
2023/09/01 04:16:10;;;;;;;;;;;17.20;70.40;;;;;;5095722;28;20295;-72
2023/09/01 04:18:35;;;;;;;;;;;17.20;70.40;;;;;;5095409;28;19920;-72
2023/09/01 04:21:01;;;;;;;;;;;17.20;70.40;;;;;;5095174;28;20263;-72
2023/09/01 04:23:26;;;;;;;;;;;17.20;70.40;;;;;;5095410;28;19943;-66
2023/09/01 04:25:52;;;;;;;;;;;17.10;70.40;;;;;;5113512;28;19962;-71
2023/09/01 04:28:17;;;;;;;;;;;17.10;70.30;;;;;;5113586;28;19919;-71
2023/09/01 04:30:43;;;;;;;;;;;17.10;70.30;;;;;;5095516;28;19946;-72
2023/09/01 04:33:09;;;;;;;;;;;17.10;70.40;;;;;;5095102;28;20379;-66
2023/09/01 04:35:35;;;;;;;;;;;17.10;70.30;;;;;;5113230;28;19926;-66
2023/09/01 04:38:00;;;;;;;;;;;17.10;70.30;;;;;;5095426;28;19924;-71
2023/09/01 04:40:26;;;;;;;;;;;17.10;70.30;;;;;;5129340;27;20381;-72
2023/09/01 04:42:52;;;;;;;;;;;17.10;70.30;;;;;;5129454;27;19926;-65
2023/09/01 04:45:17;;;;;;;;;;;17.10;70.30;;;;;;5113300;28;19986;-66
2023/09/01 04:47:43;;;;;;;;;;;17.10;70.30;;;;;;5095179;28;20363;-68
2023/09/01 04:50:09;;;;;;;;;;;17.10;70.30;;;;;;5129315;27;19919;-66
2023/09/01 04:52:35;;;;;;;;;;;17.10;70.30;;;;;;5129242;27;20022;-66
2023/09/01 04:55:00;;;;;;;;;;;17.10;70.30;;;;;;5094809;28;20004;-71
2023/09/01 04:57:26;;;;;;;;;;;17.10;70.30;;;;;;5128944;27;19920;-66
2023/09/01 04:59:51;;;;;;;;;;;17.10;70.30;;;;;;5094756;28;19924;-66
2023/09/01 05:02:17;;;;;;;;;;;17.10;70.30;;;;;;5094543;28;19924;-66
2023/09/01 05:04:42;;;;;;;;;;;17.00;70.30;;;;;;5094955;28;19923;-65
2023/09/01 05:07:08;;;;;;;;;;;17.10;70.30;;;;;;5095159;28;20017;-66
2023/09/01 05:09:33;;;;;;;;;;;17.10;70.30;;;;;;5094611;28;19923;-71
2023/09/01 05:11:59;;;;;;;;;;;17.10;71.00;;;;;;5094623;28;19919;-66
2023/09/01 05:14:25;;;;;;;;;;;17.00;70.30;;;;;;5094986;28;20575;-65
2023/09/01 05:16:50;;;;;;;;;;;17.00;70.20;;;;;;5112785;28;19920;-65
2023/09/01 05:19:16;;;;;;;;;;;17.10;70.30;;;;;;5094899;28;20428;-72
2023/09/01 05:21:41;;;;;;;;;;;17.00;70.20;;;;;;5112360;28;20014;-66
2023/09/01 05:24:07;;;;;;;;;;;17.00;70.20;;;;;;5094575;28;20394;-66
2023/09/01 05:26:34;;;;;;;;;;;17.10;70.30;;;;;;5112692;28;19920;-66
2023/09/01 05:28:59;;;;;;;;;;;17.00;70.20;;;;;;5094635;28;19968;-71
2023/09/01 05:31:25;;;;;;;;;;;17.00;70.20;;;;;;5112725;28;20394;-72
2023/09/01 05:33:50;;;;;;;;;;;17.00;70.20;;;;;;5111361;28;19924;-68
2023/09/01 05:36:16;;;;;;;;;;;17.00;70.20;;;;;;5112066;28;19926;-71
2023/09/01 05:38:41;;;;;;;;;;;17.00;70.20;;;;;;5093007;28;20282;-66
2023/09/01 05:41:10;;;;;;;;;;;17.00;70.20;;;;;;5091614;28;20033;-70
2023/09/01 05:43:36;;;;;;;;;;;17.10;70.30;;;;;;5093353;28;19919;-66
2023/09/01 05:46:01;;;;;;;;;;;17.10;70.30;;;;;;5109217;28;19946;-69
2023/09/01 05:48:27;;;;;;;;;;;17.10;70.30;;;;;;5091155;28;20422;-66
2023/09/01 05:50:53;;;;;;;;;;;17.20;70.30;;;;;;5112517;28;19924;-66
2023/09/01 05:53:18;;;;;;;;;;;17.20;70.40;;;;;;5093741;28;19942;-68
2023/09/01 05:55:44;;;;;;;;;;;17.30;70.40;;;;;;5094203;28;20014;-71
2023/09/01 05:58:09;;;;;;;;;;;17.30;70.30;;;;;;5093977;28;19924;-67
2023/09/01 06:00:34;;;;;;;;;;;17.30;70.20;;;;;;5111905;28;19974;-67
2023/09/01 06:03:00;;;;;;;;;;;17.30;70.20;;;;;;5112239;28;19923;-71
2023/09/01 06:05:25;;;;;;;;;;;17.30;70.10;;;;;;5094235;28;19959;-67
2023/09/01 06:07:51;;;;;;;;;;;17.30;70.10;;;;;;5095068;28;20014;-67
2023/09/01 06:10:16;;;;;;;;;;;17.30;70.10;;;;;;5098119;28;19919;-67
2023/09/01 06:12:42;;;;;;;;;;;17.40;70.90;;;;;;5098157;28;19919;-67
2023/09/01 06:15:08;;;;;;;;;;;17.30;70.10;;;;;;5098136;28;19969;-67
2023/09/01 06:17:34;;;;;;;;;;;17.40;70.10;;;;;;5116266;28;19923;-66
2023/09/01 06:19:59;;;;;;;;;;;17.40;70.10;;;;;;5097672;28;20437;-67
2023/09/01 06:22:25;;;;;;;;;;;17.40;70.00;;;;;;5097196;28;19974;-66
2023/09/01 06:24:51;;;;;;;;;;;17.40;70.00;;;;;;5116098;28;19920;-68
2023/09/01 06:27:16;;;;;;;;;;;17.40;70.00;;;;;;5115860;28;19920;-68
2023/09/01 06:29:42;;;;;;;;;;;17.40;70.00;;;;;;5097678;28;19920;-67
2023/09/01 06:32:11;;;;;;;;;;;17.40;69.90;;;;;;5115676;28;19926;-68
2023/09/01 06:34:37;;;;;;;;;;;17.40;70.00;;;;;;5097458;28;19920;-68
2023/09/01 06:37:03;;;;;;;;;;;17.50;70.00;;;;;;5097303;28;19927;-68
2023/09/01 06:39:28;;;;;;;;;;;17.50;70.00;;;;;;5097578;28;19927;-68
2023/09/01 06:41:54;;;;;;;;;;;17.50;70.00;;;;;;5097242;28;19931;-68
2023/09/01 06:44:19;;;;;;;;;;;17.40;69.90;;;;;;5096420;28;19969;-68
2023/09/01 06:46:45;;;;;;;;;;;17.50;69.90;;;;;;5096888;28;20105;-68
2023/09/01 06:49:10;;;;;;;;;;;17.50;70.00;;;;;;5096478;28;19980;-70
2023/09/01 06:51:35;;;;;;;;;;;17.50;70.00;;;;;;5096214;28;20549;-69
2023/09/01 06:54:01;;;;;;;;;;;17.50;70.00;;;;;;5096798;28;19928;-70
2023/09/01 06:56:26;;;;;;;;;;;17.50;70.00;;;;;;5114427;28;20000;-70
2023/09/01 06:58:55;;;;;;;;;;;17.50;70.10;;;;;;5096564;28;19920;-70
2023/09/01 07:01:21;;;;;;;;;;;17.50;70.10;;;;;;5096686;28;20006;-70
2023/09/01 07:03:47;;;;;;;;;;;17.50;70.00;;;;;;5114658;28;20030;-70
2023/09/01 07:06:12;;;;;;;;;;;17.50;70.00;;;;;;5114702;28;19955;-75
2023/09/01 07:08:38;;;;;;;;;;;17.50;70.00;;;;;;5096552;28;19926;-70
2023/09/01 07:11:05;;;;;;;;;;;17.50;69.90;;;;;;5130557;27;19942;-75
2023/09/01 07:13:31;;;;;;;;;;;17.50;69.90;;;;;;5095423;28;20026;-70
2023/09/01 07:15:56;;;;;;;;;;;17.50;69.80;;;;;;5114507;28;20006;-70
2023/09/01 07:18:23;;;;;;;;;;;17.50;69.80;;;;;;5130186;27;20378;-70
2023/09/01 07:20:49;;;;;;;;;;;17.60;69.80;;;;;;5096243;28;20373;-69
2023/09/01 07:23:15;;;;;;;;;;;17.50;69.70;;;;;;5095807;28;19971;-69
2023/09/01 07:25:42;;;;;;;;;;;17.60;69.70;;;;;;5096286;28;19986;-70
2023/09/01 07:28:07;;;;;;;;;;;17.60;69.80;;;;;;5096311;28;19920;-75
2023/09/01 07:30:33;;;;;;;;;;;17.60;69.70;;;;;;5130268;27;20394;-70
2023/09/01 07:32:59;;;;;;;;;;;17.60;69.70;;;;;;5114128;28;19919;-70
2023/09/01 07:35:24;;;;;;;;;;;17.60;69.70;;;;;;5114211;28;20044;-70
2023/09/01 07:37:50;;;;;;;;;;;17.60;69.70;;;;;;5096195;28;20014;-70
2023/09/01 07:40:15;;;;;;;;;;;17.60;69.70;;;;;;5096148;28;20363;-70
2023/09/01 07:42:41;;;;;;;;;;;17.60;69.80;;;;;;5095304;28;19920;-70
2023/09/01 07:45:07;;;;;;;;;;;17.60;69.90;;;;;;5095676;28;19923;-70
2023/09/01 07:47:33;;;;;;;;;;;17.60;70.00;;;;;;5113853;28;19927;-70
2023/09/01 07:49:58;;;;;;;;;;;17.60;70.00;;;;;;5095791;28;19958;-70
2023/09/01 07:52:25;;;;;;;;;;;17.70;70.10;;;;;;5095689;28;20286;-70
2023/09/01 07:54:51;;;;;;;;;;;17.70;70.10;;;;;;5095961;28;20354;-70
2023/09/01 07:57:16;;;;;;;;;;;17.70;70.10;;;;;;5095653;28;20002;-70
2023/09/01 07:59:42;;;;;;;;;;;17.70;70.10;;;;;;5094388;28;19927;-68
2023/09/01 08:02:07;;;;;;;;;;;17.70;70.20;;;;;;5091474;28;19920;-67
2023/09/01 08:04:33;;;;;;;;;;;17.70;70.20;;;;;;5091254;28;19938;-67
2023/09/01 08:06:59;;;;;;;;;;;17.70;70.20;;;;;;5107170;27;19920;-67
2023/09/01 08:09:25;;;;;;;;;;;17.70;70.30;;;;;;5073689;28;20011;-67
2023/09/01 08:11:51;;;;;;;;;;;17.70;70.40;;;;;;5095541;28;20046;-67
2023/09/01 08:14:16;;;;;;;;;;;17.70;70.40;;;;;;5091121;28;20023;-71
2023/09/01 08:16:42;;;;;;;;;;;17.70;70.50;;;;;;5073323;28;19920;-72
2023/09/01 08:19:08;;;;;;;;;;;17.70;70.60;;;;;;5073610;28;19927;-67
2023/09/01 08:21:33;;;;;;;;;;;17.70;70.70;;;;;;5069406;28;19935;-67
2023/09/01 08:23:59;;;;;;;;;;;17.70;70.90;;;;;;5070010;28;20349;-67
2023/09/01 08:26:25;;;;;;;;;;;17.70;71.00;;;;;;5073681;28;20471;-67
2023/09/01 08:28:50;;;;;;;;;;;17.70;71.00;;;;;;5075587;28;19921;-68
2023/09/01 08:31:16;;;;;;;;;;;17.70;71.10;;;;;;5072536;28;19926;-67
2023/09/01 08:33:42;;;;;;;;;;;17.70;71.10;;;;;;5069301;28;19925;-67
2023/09/01 08:36:08;;;;;;;;;;;17.70;71.20;;;;;;5070829;28;19929;-72
2023/09/01 08:38:33;;;;;;;;;;;17.70;71.30;;;;;;5105419;27;20094;-67
2023/09/01 08:40:59;;;;;;;;;;;17.70;71.40;;;;;;5071263;28;19930;-67
2023/09/01 08:43:26;;;;;;;;;;;17.70;71.50;;;;;;5070410;28;19928;-67
2023/09/01 08:45:53;;;;;;;;;;;17.80;71.60;;;;;;5083831;28;19955;-67
2023/09/01 08:48:18;;;;;;;;;;;17.80;71.70;;;;;;5071257;28;19924;-70
2023/09/01 08:50:43;;;;;;;;;;;17.80;71.80;;;;;;5069529;28;20042;-69
2023/09/01 08:53:09;;;;;;;;;;;17.80;71.90;;;;;;5069170;28;20195;-69
2023/09/01 08:55:35;;;;;;;;;;;17.80;72.00;;;;;;5069137;28;20398;-69
2023/09/01 08:58:00;;;;;;;;;;;17.80;72.00;;;;;;5069288;28;19939;-68
2023/09/01 09:00:26;;;;;;;;;;;17.80;72.10;;;;;;5102488;28;19927;-68
2023/09/01 09:02:51;;;;;;;;;;;17.80;72.10;;;;;;5084872;28;19924;-71
2023/09/01 09:05:19;;;;;;;;;;;17.80;72.10;;;;;;5073372;28;19920;-71
2023/09/01 09:07:56;;;;;;;;;;;17.80;72.20;;;;;;5068541;28;19975;-71
2023/09/01 09:10:31;;;;;;;;;;;17.90;72.30;;;;;;5071571;28;20395;-72
2023/09/01 09:12:56;;;;;;;;;;;17.90;72.40;;;;;;5071885;28;19927;-72
2023/09/01 09:15:22;;;;;;;;;;;17.90;72.40;;;;;;5069392;28;19920;-70
2023/09/01 09:17:48;;;;;;;;;;;17.90;72.50;;;;;;5068805;28;20395;-69
2023/09/01 09:20:14;;;;;;;;;;;17.90;72.40;;;;;;5069430;28;19943;-69
2023/09/01 09:22:56;;;;;;;;;;;18.00;72.60;;;;;;5102040;28;19935;-69
2023/09/01 09:25:25;;;;;;;;;;;17.90;72.40;;;;;;5070787;28;19924;-69
2023/09/01 09:27:52;;;;;;;;;;;17.90;72.40;;;;;;5069432;28;19924;-69
2023/09/01 09:30:17;;;;;;;;;;;17.90;72.40;;;;;;5072423;28;19921;-69
2023/09/01 09:32:43;;;;;;;;;;;17.90;72.30;;;;;;5102242;28;20011;-71
2023/09/01 09:35:10;;;;;;;;;;;17.90;72.30;;;;;;5081895;28;19971;-69
2023/09/01 09:37:36;;;;;;;;;;;17.90;72.40;;;;;;5088748;28;19951;-68
2023/09/01 09:40:11;;;;;;;;;;;17.90;72.80;;;;;;5089823;28;19928;-72
2023/09/01 09:42:38;;;;;;;;;;;17.90;73.00;;;;;;5090515;28;20309;-69
2023/09/01 09:45:05;;;;;;;;;;;18.00;73.10;;;;;;5094359;28;20014;-71
2023/09/01 09:47:32;;;;;;;;;;;18.00;73.00;;;;;;5094604;28;19924;-67
2023/09/01 09:49:59;;;;;;;;;;;18.00;73.20;;;;;;5095354;28;19927;-67
2023/09/01 09:52:25;;;;;;;;;;;18.10;73.30;;;;;;5093927;28;20636;-66
2023/09/01 09:54:57;;;;;;;;;;;18.10;73.30;;;;;;5094467;28;19920;-68
2023/09/01 09:57:23;;;;;;;;;;;18.10;73.40;;;;;;5094527;28;20018;-72
2023/09/01 09:59:50;;;;;;;;;;;18.10;73.50;;;;;;5096034;28;19946;-65
2023/09/01 10:02:27;;;;;;;;;;;18.10;73.70;;;;;;5095401;28;19947;-67
2023/09/01 10:04:53;;;;;;;;;;;18.20;73.80;;;;;;5094591;28;19920;-66
2023/09/01 10:07:19;;;;;;;;;;;18.20;73.80;;;;;;5094340;28;19920;-65
2023/09/01 10:09:45;;;;;;;;;;;18.30;73.80;;;;;;5094406;28;19920;-69
2023/09/01 10:12:11;;;;;;;;;;;18.30;73.90;;;;;;5106461;28;19920;-66
2023/09/01 10:14:39;;;;;;;;;;;18.30;73.90;;;;;;5095736;28;20302;-66
2023/09/01 10:17:05;;;;;;;;;;;18.30;73.90;;;;;;5104343;28;19931;-67
2023/09/01 10:19:30;;;;;;;;;;;18.30;73.80;;;;;;5099987;28;19920;-67
2023/09/01 10:21:57;;;;;;;;;;;18.30;73.80;;;;;;5093572;28;19928;-68
2023/09/01 10:24:22;;;;;;;;;;;18.30;73.90;;;;;;5093654;28;20310;-67
2023/09/01 10:27:08;;;;;;;;;;;18.40;74.00;;;;;;5093958;28;19927;-65
2023/09/01 10:29:34;;;;;;;;;;;18.40;74.00;;;;;;5102645;28;19923;-67
2023/09/01 10:32:16;;;;;;;;;;;18.40;74.00;;;;;;5094806;28;20401;-67
2023/09/01 10:34:49;;;;;;;;;;;18.40;74.00;;;;;;5092544;28;19928;-66
2023/09/01 10:37:23;;;;;;;;;;;18.40;74.10;;;;;;5086984;28;19920;-67
2023/09/01 10:39:48;;;;;;;;;;;18.40;74.10;;;;;;5093002;28;19920;-65
2023/09/01 10:42:14;;;;;;;;;;;18.40;74.10;;;;;;5093219;28;19935;-66
2023/09/01 10:50:16;;;;;;;;;;;18.40;74.20;;;;;;5110138;27;20276;-71
2023/09/01 10:52:42;;;;;;;;;;;18.50;74.30;;;;;;5108311;28;19924;-68
2023/09/01 10:55:08;;;;;;;;;;;18.50;74.30;;;;;;5108480;28;20294;-70
2023/09/01 11:03:24;;;;;;;;;;;18.50;74.30;;;;;;5109605;27;20338;-66
2023/09/01 11:05:53;;;;;;;;;;;18.50;74.30;;;;;;5108482;28;19926;-66
2023/09/01 11:08:19;;;;;;;;;;;18.50;74.30;;;;;;5108401;28;20398;-67
2023/09/01 11:10:44;;;;;;;;;;;18.40;74.20;;;;;;5108875;28;19920;-68
2023/09/01 11:13:18;;;;;;;;;;;18.40;74.20;;;;;;5108398;28;19965;-67
2023/09/01 11:15:44;;;;;;;;;;;18.40;74.10;;;;;;5108523;28;20539;-69
2023/09/01 11:18:18;;;;;;;;;;;18.40;74.10;;;;;;5109307;28;19924;-67
2023/09/01 11:20:44;;;;;;;;;;;18.40;74.00;;;;;;5108207;28;19954;-67
2023/09/01 11:23:09;;;;;;;;;;;18.40;74.00;;;;;;5109647;28;19930;-67
2023/09/01 11:25:35;;;;;;;;;;;18.40;74.00;;;;;;5108464;28;20022;-67
2023/09/01 11:28:01;;;;;;;;;;;18.40;74.00;;;;;;5107839;28;19964;-67
2023/09/01 11:30:26;;;;;;;;;;;18.40;74.00;;;;;;5106996;28;20448;-67
2023/09/01 11:32:52;;;;;;;;;;;18.40;74.00;;;;;;5109422;28;19928;-71
2023/09/01 11:35:21;;;;;;;;;;;18.40;74.00;;;;;;5107860;28;19920;-67
2023/09/01 11:37:47;;;;;;;;;;;18.40;74.00;;;;;;5107738;28;19926;-70
2023/09/01 11:40:13;;;;;;;;;;;18.40;74.00;;;;;;5107751;28;20018;-70
2023/09/01 11:42:39;;;;;;;;;;;18.40;74.10;;;;;;5107597;28;20382;-67
2023/09/01 11:45:06;;;;;;;;;;;18.40;74.10;;;;;;5108055;28;19920;-66
2023/09/01 11:47:32;;;;;;;;;;;18.40;74.10;;;;;;5106995;28;20379;-67
2023/09/01 11:49:58;;;;;;;;;;;18.40;74.10;;;;;;5107084;28;19927;-70
2023/09/01 11:52:23;;;;;;;;;;;18.40;74.20;;;;;;5108870;28;20298;-69
2023/09/01 11:54:49;;;;;;;;;;;18.40;74.20;;;;;;5108697;28;19919;-70
2023/09/01 11:57:14;;;;;;;;;;;18.40;75.10;;;;;;5107280;28;20337;-67
2023/09/01 11:59:44;;;;;;;;;;;18.40;74.40;;;;;;5107710;28;19974;-69
2023/09/01 12:02:09;;;;;;;;;;;18.50;74.50;;;;;;5106446;28;19963;-67
2023/09/01 12:04:43;;;;;;;;;;;18.50;74.40;;;;;;5106907;28;19983;-72
2023/09/01 12:07:09;;;;;;;;;;;18.50;74.40;;;;;;5107394;28;19920;-67
2023/09/01 12:09:34;;;;;;;;;;;18.50;74.30;;;;;;5107774;28;20283;-71
2023/09/01 12:12:02;;;;;;;;;;;18.50;74.30;;;;;;5107132;28;20379;-67
2023/09/01 12:14:29;;;;;;;;;;;18.50;74.30;;;;;;5093320;28;19920;-71
2023/09/01 12:16:54;;;;;;;;;;;18.50;74.30;;;;;;5094693;28;20301;-71
2023/09/01 12:19:20;;;;;;;;;;;18.50;74.30;;;;;;5094022;28;19920;-67
2023/09/01 12:21:46;;;;;;;;;;;18.50;74.30;;;;;;5093203;28;19927;-67
2023/09/01 12:24:11;;;;;;;;;;;18.50;74.30;;;;;;5093602;28;20311;-67
2023/09/01 12:26:37;;;;;;;;;;;18.60;74.40;;;;;;5093460;28;19958;-69
2023/09/01 12:29:02;;;;;;;;;;;18.60;74.40;;;;;;5093627;28;20402;-66
2023/09/01 12:31:28;;;;;;;;;;;18.60;74.50;;;;;;5093276;28;19924;-67
2023/09/01 12:33:53;;;;;;;;;;;18.60;74.50;;;;;;5093725;28;19926;-68
2023/09/01 12:36:19;;;;;;;;;;;18.60;74.50;;;;;;5093147;28;19963;-67
2023/09/01 12:38:44;;;;;;;;;;;18.70;74.50;;;;;;5093544;28;19920;-73
2023/09/01 12:41:09;;;;;;;;;;;18.70;74.60;;;;;;5094137;28;19931;-69
2023/09/01 12:43:35;;;;;;;;;;;18.70;74.50;;;;;;5093070;28;20027;-68
2023/09/01 12:46:00;;;;;;;;;;;18.70;74.60;;;;;;5093912;28;19927;-68
2023/09/01 12:48:26;;;;;;;;;;;18.70;74.60;;;;;;5091923;28;19978;-68
2023/09/01 12:50:51;;;;;;;;;;;18.80;74.70;;;;;;5091792;28;19951;-67
2023/09/01 12:53:17;;;;;;;;;;;18.80;74.80;;;;;;5101764;28;19932;-72
2023/09/01 12:55:45;;;;;;;;;;;18.70;74.70;;;;;;5094501;28;20329;-67
2023/09/01 12:58:10;;;;;;;;;;;18.80;74.70;;;;;;5093448;28;19924;-68
2023/09/01 13:00:36;;;;;;;;;;;18.80;74.70;;;;;;5091658;28;19924;-71
2023/09/01 13:03:02;;;;;;;;;;;18.80;74.70;;;;;;5095785;28;19924;-68
2023/09/01 13:05:29;;;;;;;;;;;18.80;74.60;;;;;;5095165;28;19920;-69
2023/09/01 13:07:54;;;;;;;;;;;18.80;74.60;;;;;;5122979;27;19965;-70
2023/09/01 13:10:20;;;;;;;;;;;18.80;74.70;;;;;;5112350;28;20371;-68
2023/09/01 13:12:46;;;;;;;;;;;18.80;75.40;;;;;;5094408;28;19924;-72
2023/09/01 13:15:12;;;;;;;;;;;18.90;74.60;;;;;;5112363;28;19920;-67
2023/09/01 13:17:39;;;;;;;;;;;18.90;74.50;;;;;;5113879;28;19943;-67
2023/09/01 13:20:05;;;;;;;;;;;18.90;74.50;;;;;;5079112;28;19920;-75
2023/09/01 13:22:31;;;;;;;;;;;18.90;74.60;;;;;;5120206;27;20410;-68
2023/09/01 13:24:56;;;;;;;;;;;18.90;74.60;;;;;;5094468;28;19924;-71
2023/09/01 13:27:22;;;;;;;;;;;18.90;74.60;;;;;;5095183;28;19921;-71
2023/09/01 13:29:48;;;;;;;;;;;18.90;74.60;;;;;;5094691;28;20453;-68
2023/09/01 13:32:13;;;;;;;;;;;19.00;74.80;;;;;;5094879;28;20375;-72
2023/09/01 13:34:39;;;;;;;;;;;19.00;74.70;;;;;;5095363;28;19934;-67
2023/09/01 13:37:09;;;;;;;;;;;19.00;74.60;;;;;;5095303;28;19924;-67
2023/09/01 13:39:34;;;;;;;;;;;18.90;74.50;;;;;;5095611;28;19923;-67
2023/09/01 13:42:00;;;;;;;;;;;18.90;74.60;;;;;;5094669;28;19932;-67
2023/09/01 13:44:25;;;;;;;;;;;18.90;74.50;;;;;;5092967;28;20022;-68
2023/09/01 13:46:51;;;;;;;;;;;18.90;74.60;;;;;;5112987;28;20337;-71
2023/09/01 13:49:19;;;;;;;;;;;18.90;74.60;;;;;;5112288;28;19926;-71
2023/09/01 13:51:44;;;;;;;;;;;18.90;74.60;;;;;;5092924;28;19920;-71
2023/09/01 13:54:10;;;;;;;;;;;19.00;74.70;;;;;;5092525;28;20050;-70
2023/09/01 13:56:35;;;;;;;;;;;19.00;74.70;;;;;;5112494;28;19924;-73
2023/09/01 13:59:01;;;;;;;;;;;19.00;74.70;;;;;;5094532;28;19927;-72
2023/09/01 14:01:27;;;;;;;;;;;19.00;74.60;;;;;;5112591;28;19924;-69
2023/09/01 14:03:52;;;;;;;;;;;19.00;74.60;;;;;;5094852;28;19995;-69
2023/09/01 14:06:17;;;;;;;;;;;19.00;74.60;;;;;;5091975;28;19998;-75
2023/09/01 14:08:43;;;;;;;;;;;19.00;74.60;;;;;;5093925;28;19919;-71
2023/09/01 14:11:09;;;;;;;;;;;19.00;74.50;;;;;;5112182;28;19927;-71
2023/09/01 14:13:34;;;;;;;;;;;18.90;74.50;;;;;;5093483;28;20487;-71
2023/09/01 14:16:00;;;;;;;;;;;18.90;75.30;;;;;;5093528;28;19920;-70
2023/09/01 14:18:25;;;;;;;;;;;18.90;74.60;;;;;;5093228;28;19930;-69
2023/09/01 14:20:53;;;;;;;;;;;18.90;74.70;;;;;;5098914;28;19946;-69
2023/09/01 14:23:19;;;;;;;;;;;18.80;74.80;;;;;;5108632;28;20428;-69
2023/09/01 14:25:45;;;;;;;;;;;18.80;74.80;;;;;;5113429;27;19924;-69